Time;durP1;ratioP1;P1;durP2;ratioP2;P2;SDS_P1;SDS_P2;PMS_P1;PMS_P2;Temp;Humidity;BMP_temperature;BMP_pressure;BME280_temperature;BME280_humidity;BME280_pressure;Samples;Min_cycle;Max_cycle;Signal;HPM_P1;HPM_P2
2021/01/09 00:00:43;;;;;;;19.87;9.40;;;1.10;99.70;;;;;;5029549;28;20449;-67
2021/01/09 00:03:09;;;;;;;16.90;8.97;;;1.10;99.70;;;;;;5029726;28;20495;-67
2021/01/09 00:05:35;;;;;;;17.97;9.23;;;1.10;99.70;;;;;;5029920;28;20522;-69
2021/01/09 00:08:01;;;;;;;20.33;9.80;;;1.30;99.70;;;;;;5029412;28;20448;-69
2021/01/09 00:10:29;;;;;;;18.60;8.90;;;1.40;99.70;;;;;;5029670;28;20445;-69
2021/01/09 00:12:55;;;;;;;18.50;9.30;;;1.20;99.70;;;;;;5021582;28;20818;-67
2021/01/09 00:15:21;;;;;;;21.10;10.10;;;1.20;99.70;;;;;;5029554;28;20464;-67
2021/01/09 00:17:47;;;;;;;18.47;9.10;;;1.20;99.70;;;;;;5029312;28;20449;-67
2021/01/09 00:20:15;;;;;;;21.57;10.10;;;1.30;99.70;;;;;;5029734;28;20471;-67
2021/01/09 00:22:42;;;;;;;19.27;9.00;;;1.20;99.70;;;;;;5029546;28;20480;-68
2021/01/09 00:25:10;;;;;;;17.40;9.60;;;1.20;99.70;;;;;;5029489;28;20468;-68
2021/01/09 00:27:38;;;;;;;18.90;9.70;;;1.00;99.70;;;;;;5029211;28;20452;-68
2021/01/09 00:30:04;;;;;;;21.00;10.33;;;1.00;99.70;;;;;;5026807;28;20826;-68
2021/01/09 00:32:31;;;;;;;21.73;9.60;;;1.00;99.70;;;;;;5029441;28;20522;-67
2021/01/09 00:34:57;;;;;;;20.87;10.10;;;1.10;99.70;;;;;;5031667;28;20809;-67
2021/01/09 00:37:25;;;;;;;22.03;9.50;;;1.20;99.70;;;;;;5032764;28;20445;-69
2021/01/09 00:39:51;;;;;;;21.17;9.67;;;1.00;99.70;;;;;;5033138;28;20472;-68
2021/01/09 00:42:17;;;;;;;17.50;9.17;;;1.10;99.70;;;;;;5033092;28;20440;-68
2021/01/09 00:44:44;;;;;;;20.80;9.60;;;1.10;99.70;;;;;;5032806;28;20969;-68
2021/01/09 00:47:10;;;;;;;18.57;9.40;;;1.10;99.70;;;;;;5032651;28;20448;-69
2021/01/09 00:49:37;;;;;;;20.73;9.93;;;1.30;99.70;;;;;;5032911;28;20444;-68
2021/01/09 00:52:03;;;;;;;20.13;9.63;;;1.20;99.70;;;;;;5032807;28;20949;-68
2021/01/09 00:54:31;;;;;;;20.23;8.90;;;1.30;99.70;;;;;;5032685;28;20472;-67
2021/01/09 00:56:57;;;;;;;18.63;9.43;;;1.10;99.70;;;;;;5032374;28;20453;-67
2021/01/09 00:59:24;;;;;;;17.80;8.50;;;1.30;99.70;;;;;;5032657;28;20444;-69
2021/01/09 01:01:52;;;;;;;18.33;8.90;;;1.20;99.70;;;;;;5032121;28;20860;-67
2021/01/09 01:04:18;;;;;;;21.60;10.30;;;1.10;99.70;;;;;;5032340;28;20484;-67
2021/01/09 01:06:45;;;;;;;20.73;8.83;;;1.10;99.70;;;;;;5032304;28;20445;-67
2021/01/09 01:09:11;;;;;;;20.30;8.90;;;1.10;99.70;;;;;;5032512;28;20863;-67
2021/01/09 01:11:37;;;;;;;20.87;9.43;;;1.00;99.70;;;;;;5032421;28;20445;-68
2021/01/09 01:14:04;;;;;;;16.60;8.70;;;1.30;99.70;;;;;;5032393;28;20437;-68
2021/01/09 01:16:31;;;;;;;17.40;8.40;;;1.20;99.70;;;;;;5032446;28;20449;-68
2021/01/09 01:18:58;;;;;;;18.40;9.00;;;1.20;99.70;;;;;;5031949;28;20758;-67
2021/01/09 01:21:24;;;;;;;17.93;9.20;;;1.40;99.70;;;;;;5032338;28;20452;-67
2021/01/09 01:23:50;;;;;;;17.67;8.70;;;1.50;99.70;;;;;;5032066;28;20480;-68
2021/01/09 01:26:17;;;;;;;16.47;8.60;;;1.40;99.70;;;;;;5032185;28;20518;-67
2021/01/09 01:28:43;;;;;;;19.83;9.10;;;1.40;99.70;;;;;;5031824;28;20498;-70
2021/01/09 01:31:10;;;;;;;16.80;8.60;;;1.30;99.70;;;;;;5032050;28;20445;-67
2021/01/09 01:33:37;;;;;;;16.63;9.17;;;1.20;99.70;;;;;;5032212;28;20867;-67
2021/01/09 01:36:07;;;;;;;18.13;9.17;;;1.10;99.70;;;;;;5031932;28;20996;-68
2021/01/09 01:38:33;;;;;;;19.20;9.70;;;1.10;99.70;;;;;;5031723;28;20467;-67
2021/01/09 01:41:04;;;;;;;20.20;10.00;;;1.10;99.70;;;;;;5031879;28;20451;-69
2021/01/09 01:43:31;;;;;;;23.43;9.90;;;1.00;99.70;;;;;;5031849;28;20480;-68
2021/01/09 01:45:58;;;;;;;20.23;9.77;;;0.90;99.70;;;;;;5030766;28;21038;-67
2021/01/09 01:48:24;;;;;;;21.20;10.03;;;0.90;99.70;;;;;;5031411;28;20824;-67
2021/01/09 01:50:51;;;;;;;19.47;10.40;;;0.80;99.70;;;;;;5031740;28;21016;-67
2021/01/09 01:53:18;;;;;;;19.10;9.90;;;0.80;99.70;;;;;;5031866;28;20452;-67
2021/01/09 01:55:44;;;;;;;17.97;9.57;;;0.80;99.70;;;;;;5031426;28;20508;-68
2021/01/09 01:58:11;;;;;;;21.33;10.77;;;0.80;99.70;;;;;;5031315;28;20449;-67
2021/01/09 02:00:42;;;;;;;18.03;9.53;;;0.90;99.70;;;;;;5030949;28;20479;-67
2021/01/09 02:03:08;;;;;;;20.27;9.60;;;0.90;99.70;;;;;;5031500;28;20519;-67
2021/01/09 02:05:40;;;;;;;18.43;9.60;;;1.00;99.70;;;;;;5032670;28;20888;-67
2021/01/09 02:08:12;;;;;;;19.03;9.43;;;1.10;99.70;;;;;;5031161;28;20453;-67
2021/01/09 02:10:45;;;;;;;19.70;10.33;;;1.00;99.70;;;;;;5031375;28;20448;-67
2021/01/09 02:13:19;;;;;;;18.10;9.07;;;0.90;99.70;;;;;;5031422;28;20440;-67
2021/01/09 02:15:49;;;;;;;19.57;9.70;;;0.90;99.70;;;;;;5031460;28;20508;-67
2021/01/09 02:18:17;;;;;;;18.27;9.90;;;0.90;99.70;;;;;;5030896;28;20452;-67
2021/01/09 02:20:44;;;;;;;20.53;10.43;;;0.90;99.70;;;;;;5031070;28;20459;-68
2021/01/09 02:23:11;;;;;;;21.87;10.10;;;0.90;99.70;;;;;;5031096;28;20530;-69
2021/01/09 02:25:38;;;;;;;20.43;9.40;;;0.80;99.70;;;;;;5031023;28;20464;-67
2021/01/09 02:28:04;;;;;;;20.87;9.60;;;0.90;99.70;;;;;;5030649;28;20494;-69
2021/01/09 02:30:33;;;;;;;25.13;9.93;;;0.90;99.70;;;;;;5031017;28;20448;-68
2021/01/09 02:33:03;;;;;;;19.30;10.07;;;0.90;99.70;;;;;;5031004;28;20444;-67
2021/01/09 02:35:32;;;;;;;22.87;10.60;;;0.90;99.70;;;;;;5030778;28;20891;-68
2021/01/09 02:37:59;;;;;;;24.97;10.40;;;0.90;99.70;;;;;;5030618;28;20460;-68
2021/01/09 02:40:26;;;;;;;21.13;10.43;;;0.90;99.70;;;;;;5030683;28;20449;-69
2021/01/09 02:42:53;;;;;;;21.43;10.50;;;0.90;99.70;;;;;;5030686;28;20449;-68
2021/01/09 02:45:19;;;;;;;22.23;11.40;;;1.00;99.70;;;;;;5030659;28;20464;-67
2021/01/09 02:47:45;;;;;;;25.17;11.27;;;1.00;99.70;;;;;;5030354;28;20441;-69
2021/01/09 02:50:12;;;;;;;24.80;11.23;;;0.90;99.70;;;;;;5030653;28;20471;-67
2021/01/09 02:52:38;;;;;;;20.70;10.87;;;0.90;99.70;;;;;;5030580;28;20457;-67
2021/01/09 02:55:05;;;;;;;26.17;11.10;;;0.90;99.70;;;;;;5030449;28;20481;-69
2021/01/09 02:57:33;;;;;;;20.37;10.30;;;0.90;99.70;;;;;;5029971;28;20445;-69
2021/01/09 02:59:59;;;;;;;22.13;11.17;;;0.90;99.70;;;;;;5030369;28;20822;-68
2021/01/09 03:02:25;;;;;;;23.90;10.90;;;0.90;99.70;;;;;;5029835;28;20451;-67
2021/01/09 03:04:52;;;;;;;23.97;10.93;;;0.90;99.70;;;;;;5030414;28;21010;-67
2021/01/09 03:07:18;;;;;;;23.60;11.40;;;0.90;99.70;;;;;;5030099;28;20444;-68
2021/01/09 03:09:44;;;;;;;22.37;11.20;;;0.90;99.70;;;;;;5030230;28;20460;-68
2021/01/09 03:12:10;;;;;;;23.50;11.10;;;1.10;99.70;;;;;;5030610;28;20455;-68
2021/01/09 03:14:37;;;;;;;21.70;10.77;;;1.00;99.70;;;;;;5030528;28;20460;-68
2021/01/09 03:17:03;;;;;;;23.70;11.13;;;1.00;99.70;;;;;;5030497;28;20444;-69
2021/01/09 03:19:30;;;;;;;25.17;11.53;;;0.90;99.70;;;;;;5030530;28;20499;-68
2021/01/09 03:21:56;;;;;;;22.30;11.50;;;1.00;99.70;;;;;;5030342;28;20448;-69
2021/01/09 03:24:22;;;;;;;21.63;11.10;;;1.00;99.70;;;;;;5030025;28;20484;-69
2021/01/09 03:26:48;;;;;;;27.47;11.40;;;0.90;99.70;;;;;;5030029;28;20448;-69
2021/01/09 03:29:14;;;;;;;23.63;10.93;;;1.00;99.70;;;;;;5030315;28;20448;-68
2021/01/09 03:31:41;;;;;;;21.13;10.00;;;0.90;99.70;;;;;;5030248;28;20516;-68
2021/01/09 03:34:08;;;;;;;25.53;11.80;;;0.90;99.70;;;;;;5030222;28;20463;-70
2021/01/09 03:36:34;;;;;;;21.50;10.60;;;0.90;99.70;;;;;;5030217;28;20456;-70
2021/01/09 03:39:00;;;;;;;20.40;9.97;;;0.90;99.70;;;;;;5029760;28;20965;-69
2021/01/09 03:41:26;;;;;;;21.00;10.53;;;1.00;99.70;;;;;;5029970;28;20451;-69
2021/01/09 03:43:52;;;;;;;20.13;10.67;;;1.00;99.70;;;;;;5029969;28;20476;-68
2021/01/09 03:46:18;;;;;;;19.70;9.77;;;1.00;99.70;;;;;;5029939;28;20771;-67
2021/01/09 03:48:45;;;;;;;19.90;10.47;;;1.00;99.70;;;;;;5029577;28;20879;-67
2021/01/09 03:51:11;;;;;;;21.87;11.20;;;0.90;99.70;;;;;;5030040;28;20451;-68
2021/01/09 03:53:38;;;;;;;18.10;9.73;;;0.90;99.70;;;;;;5029966;28;20437;-67
2021/01/09 03:56:05;;;;;;;20.37;10.80;;;0.90;99.70;;;;;;5029605;28;21001;-67
2021/01/09 03:58:31;;;;;;;21.70;10.57;;;0.90;99.70;;;;;;5029636;28;20445;-69
2021/01/09 04:00:57;;;;;;;23.23;11.03;;;0.90;99.70;;;;;;5029070;28;20451;-70
2021/01/09 04:03:23;;;;;;;24.53;11.53;;;0.90;99.70;;;;;;5029671;28;20484;-68
2021/01/09 04:05:51;;;;;;;22.47;10.07;;;0.90;99.70;;;;;;5029796;28;20479;-68
2021/01/09 04:08:17;;;;;;;27.10;11.43;;;1.10;99.70;;;;;;5029343;28;20460;-67
2021/01/09 04:10:43;;;;;;;21.10;10.93;;;1.10;99.70;;;;;;5033241;28;20451;-70
2021/01/09 04:13:09;;;;;;;21.37;10.70;;;1.00;99.70;;;;;;5033539;28;20448;-69
2021/01/09 04:15:35;;;;;;;19.80;10.40;;;1.00;99.70;;;;;;5033501;28;20844;-68
2021/01/09 04:18:02;;;;;;;21.73;11.07;;;1.00;99.70;;;;;;5033263;28;20444;-68
2021/01/09 04:20:28;;;;;;;20.80;10.93;;;1.10;99.70;;;;;;5033413;28;20452;-67
2021/01/09 04:22:55;;;;;;;21.53;11.17;;;1.10;99.70;;;;;;5033339;28;20825;-67
2021/01/09 04:25:21;;;;;;;22.43;11.10;;;1.10;99.70;;;;;;5033491;28;20473;-67
2021/01/09 04:27:48;;;;;;;23.53;10.57;;;1.10;99.70;;;;;;5033045;28;20479;-69
2021/01/09 04:30:15;;;;;;;21.73;11.10;;;1.10;99.70;;;;;;5033297;28;20455;-68
2021/01/09 04:32:41;;;;;;;22.07;11.20;;;1.00;99.70;;;;;;5033308;28;20475;-68
2021/01/09 04:35:08;;;;;;;21.80;11.07;;;1.10;99.70;;;;;;5032983;28;20461;-69
2021/01/09 04:37:36;;;;;;;21.50;10.70;;;1.20;99.70;;;;;;5032775;28;20875;-68
2021/01/09 04:40:05;;;;;;;21.07;10.60;;;1.10;99.70;;;;;;5033049;28;20444;-67
2021/01/09 04:42:32;;;;;;;20.90;11.37;;;1.00;99.70;;;;;;5033035;28;20502;-69
2021/01/09 04:44:58;;;;;;;24.67;11.97;;;1.00;99.70;;;;;;5032806;28;20484;-67
2021/01/09 04:47:26;;;;;;;25.50;11.93;;;1.00;99.70;;;;;;5032468;28;20440;-67
2021/01/09 04:49:52;;;;;;;22.43;11.50;;;1.00;99.70;;;;;;5033038;28;20476;-69
2021/01/09 04:52:19;;;;;;;25.27;11.80;;;1.00;99.70;;;;;;5032759;28;20472;-68
2021/01/09 04:54:46;;;;;;;22.60;12.17;;;1.00;99.70;;;;;;5032819;28;20519;-67
2021/01/09 04:57:14;;;;;;;25.97;13.03;;;1.00;99.70;;;;;;5032494;28;20872;-67
2021/01/09 04:59:41;;;;;;;27.57;13.40;;;1.00;99.70;;;;;;5032744;28;20454;-69
2021/01/09 05:02:09;;;;;;;24.97;12.73;;;1.00;99.70;;;;;;5032071;28;20495;-67
2021/01/09 05:04:35;;;;;;;28.77;13.47;;;1.00;99.70;;;;;;5032634;28;20988;-67
2021/01/09 05:07:02;;;;;;;29.37;13.43;;;1.10;99.70;;;;;;5032311;28;20444;-68
2021/01/09 05:09:28;;;;;;;26.63;12.40;;;1.20;99.70;;;;;;5032617;28;20444;-67
2021/01/09 05:11:57;;;;;;;26.40;12.53;;;1.20;99.70;;;;;;5032843;28;20449;-68
2021/01/09 05:14:27;;;;;;;28.33;13.27;;;1.10;99.70;;;;;;5032230;28;20489;-68
2021/01/09 05:16:55;;;;;;;26.77;12.50;;;1.00;99.70;;;;;;5032121;28;20445;-67
2021/01/09 05:19:27;;;;;;;27.17;13.57;;;1.00;99.70;;;;;;5032451;28;20445;-68
2021/01/09 05:21:55;;;;;;;26.00;12.50;;;1.00;99.70;;;;;;5032390;28;20864;-67
2021/01/09 05:24:21;;;;;;;26.37;12.67;;;0.90;99.70;;;;;;5032168;28;20512;-69
2021/01/09 05:26:49;;;;;;;24.17;12.20;;;1.00;99.70;;;;;;5031912;28;20440;-67
2021/01/09 05:29:16;;;;;;;28.47;13.73;;;1.00;99.70;;;;;;5032254;28;20961;-67
2021/01/09 05:31:44;;;;;;;23.80;11.47;;;1.00;99.70;;;;;;5032110;28;20449;-69
2021/01/09 05:34:10;;;;;;;24.87;11.73;;;1.00;99.70;;;;;;5032326;28;20460;-67
2021/01/09 05:36:39;;;;;;;22.67;11.57;;;0.90;99.70;;;;;;5032200;28;21107;-67
2021/01/09 05:39:05;;;;;;;24.13;12.10;;;1.00;99.70;;;;;;5031795;28;20934;-67
2021/01/09 05:41:32;;;;;;;24.80;12.10;;;1.00;99.70;;;;;;5032130;28;20463;-67
2021/01/09 05:43:59;;;;;;;26.33;12.57;;;1.00;99.70;;;;;;5031881;28;20492;-67
2021/01/09 05:46:27;;;;;;;23.17;11.87;;;1.00;99.70;;;;;;5031985;28;20453;-67
2021/01/09 05:48:55;;;;;;;26.73;12.40;;;1.00;99.70;;;;;;5031797;28;20440;-67
2021/01/09 05:51:21;;;;;;;28.00;13.00;;;1.00;99.70;;;;;;5032046;28;20798;-67
2021/01/09 05:53:48;;;;;;;25.93;12.23;;;1.00;99.70;;;;;;5031867;28;20460;-71
2021/01/09 05:56:15;;;;;;;24.00;12.07;;;1.00;99.70;;;;;;5032060;28;20442;-67
2021/01/09 05:58:42;;;;;;;21.47;10.90;;;0.90;99.70;;;;;;5031402;28;20447;-69
2021/01/09 06:01:09;;;;;;;25.43;11.40;;;0.90;99.70;;;;;;5031061;28;20471;-68
2021/01/09 06:03:38;;;;;;;23.83;12.03;;;0.80;99.70;;;;;;5031573;28;20487;-67
2021/01/09 06:06:22;;;;;;;27.30;12.80;;;0.90;99.70;;;;;;5031458;28;20473;-67
2021/01/09 06:08:53;;;;;;;26.17;12.50;;;0.90;99.70;;;;;;5031280;28;20817;-67
2021/01/09 06:11:29;;;;;;;24.07;12.33;;;0.80;99.70;;;;;;5031560;28;20441;-67
2021/01/09 06:13:58;;;;;;;24.73;11.57;;;0.80;99.70;;;;;;5031409;28;20472;-67
2021/01/09 06:16:25;;;;;;;21.37;11.17;;;0.90;99.70;;;;;;5031452;28;20467;-67
2021/01/09 06:18:52;;;;;;;23.43;11.53;;;0.90;99.70;;;;;;5030941;28;20444;-67
2021/01/09 06:21:20;;;;;;;21.73;11.00;;;0.90;99.70;;;;;;5031163;28;20444;-69
2021/01/09 06:23:46;;;;;;;26.27;12.80;;;0.90;99.70;;;;;;5031165;28;21054;-70
2021/01/09 06:26:15;;;;;;;23.83;12.17;;;0.80;99.70;;;;;;5031052;28;20452;-68
2021/01/09 06:28:46;;;;;;;22.90;12.90;;;0.90;99.70;;;;;;5030551;28;20871;-68
2021/01/09 06:31:21;;;;;;;28.30;12.47;;;0.90;99.70;;;;;;5030778;28;20441;-67
2021/01/09 06:33:50;;;;;;;26.77;12.97;;;0.80;99.70;;;;;;5031021;28;20440;-67
2021/01/09 06:36:17;;;;;;;30.43;13.03;;;0.80;99.70;;;;;;5030898;28;21091;-67
2021/01/09 06:38:47;;;;;;;26.57;12.90;;;0.80;99.70;;;;;;5030378;28;20444;-67
2021/01/09 06:41:15;;;;;;;26.80;12.97;;;0.80;99.70;;;;;;5030907;28;20441;-69
2021/01/09 06:43:44;;;;;;;27.40;12.40;;;0.80;99.70;;;;;;5030730;28;20487;-67
2021/01/09 06:46:12;;;;;;;25.30;12.63;;;0.80;99.70;;;;;;5030665;28;20492;-68
2021/01/09 06:48:44;;;;;;;24.10;12.77;;;0.80;99.70;;;;;;5030488;28;20487;-67
2021/01/09 06:51:41;;;;;;;27.70;12.63;;;0.80;99.70;;;;;;5030925;28;20535;-67
2021/01/09 06:54:28;;;;;;;25.47;11.73;;;0.80;99.70;;;;;;5001479;28;20503;-68
2021/01/09 06:57:16;;;;;;;24.97;12.20;;;0.90;99.70;;;;;;5030286;28;20443;-67
2021/01/09 06:59:44;;;;;;;31.73;14.13;;;0.80;99.70;;;;;;5030669;28;20448;-67
2021/01/09 07:02:12;;;;;;;28.40;13.87;;;0.70;99.70;;;;;;5029885;28;20470;-67
2021/01/09 07:05:06;;;;;;;32.53;14.50;;;0.70;99.70;;;;;;5030287;28;20538;-67
2021/01/09 07:07:37;;;;;;;35.43;14.50;;;0.80;99.70;;;;;;5030170;28;20491;-67
2021/01/09 07:10:17;;;;;;;29.10;12.50;;;0.80;99.70;;;;;;5030347;28;20867;-69
2021/01/09 07:12:48;;;;;;;28.27;12.50;;;0.80;99.70;;;;;;5030351;28;20440;-67
2021/01/09 07:15:16;;;;;;;26.10;12.73;;;0.80;99.70;;;;;;5030481;28;20461;-68
2021/01/09 07:17:49;;;;;;;23.80;12.17;;;0.80;99.70;;;;;;5029965;28;20437;-68
2021/01/09 07:20:18;;;;;;;26.63;12.57;;;0.90;99.70;;;;;;5030170;28;20487;-69
2021/01/09 07:22:47;;;;;;;29.83;13.10;;;0.80;99.70;;;;;;5030194;28;20449;-67
2021/01/09 07:25:20;;;;;;;29.60;13.93;;;0.80;99.70;;;;;;5030054;28;20603;-67
2021/01/09 07:27:48;;;;;;;27.00;13.20;;;0.80;99.70;;;;;;5029738;28;20448;-68
2021/01/09 07:30:16;;;;;;;30.77;13.40;;;0.80;99.70;;;;;;5030205;28;20956;-70
2021/01/09 07:32:50;;;;;;;29.13;14.27;;;0.80;99.70;;;;;;5030069;28;20444;-67
2021/01/09 07:35:20;;;;;;;34.40;15.07;;;0.80;99.70;;;;;;5030100;28;20464;-67
2021/01/09 07:37:48;;;;;;;29.03;13.80;;;0.80;99.70;;;;;;5029670;28;20445;-67
2021/01/09 07:40:18;;;;;;;31.80;13.90;;;0.80;99.70;;;;;;5030002;28;20955;-68
2021/01/09 07:42:44;;;;;;;36.93;15.40;;;0.80;99.70;;;;;;5030022;28;20452;-68
2021/01/09 07:45:12;;;;;;;37.40;16.17;;;0.90;99.70;;;;;;5032721;28;20480;-69
2021/01/09 07:47:43;;;;;;;37.40;15.50;;;0.90;99.70;;;;;;5033888;28;20445;-69
2021/01/09 07:50:11;;;;;;;39.60;17.20;;;0.90;99.70;;;;;;5034142;28;20452;-67
2021/01/09 07:52:38;;;;;;;42.20;17.40;;;0.90;99.70;;;;;;5034188;28;20452;-68
2021/01/09 07:55:07;;;;;;;40.40;16.63;;;0.90;99.70;;;;;;5034006;28;20469;-68
2021/01/09 07:57:34;;;;;;;41.00;16.80;;;0.80;99.70;;;;;;5033657;28;20452;-68
2021/01/09 08:00:12;;;;;;;35.43;16.63;;;0.80;99.70;;;;;;5033946;28;20496;-70
2021/01/09 08:02:40;;;;;;;44.70;16.90;;;0.90;99.70;;;;;;5033055;28;20948;-68
2021/01/09 08:05:09;;;;;;;44.10;18.27;;;0.90;99.70;;;;;;5034745;28;20488;-70
2021/01/09 08:07:36;;;;;;;50.90;19.47;;;0.90;99.70;;;;;;5033587;28;20452;-68
2021/01/09 08:10:16;;;;;;;40.93;17.80;;;0.90;99.70;;;;;;5033646;28;20513;-68
2021/01/09 08:12:44;;;;;;;43.77;18.27;;;0.90;99.70;;;;;;5033692;28;20455;-69
2021/01/09 08:15:10;;;;;;;41.90;18.40;;;0.90;99.70;;;;;;5033380;28;20487;-68
2021/01/09 08:17:36;;;;;;;40.80;17.37;;;0.90;99.70;;;;;;5033146;28;20451;-68
2021/01/09 08:20:10;;;;;;;46.37;18.57;;;0.90;99.70;;;;;;5033620;28;20440;-69
2021/01/09 08:22:38;;;;;;;41.13;17.67;;;0.90;99.70;;;;;;5033528;28;20487;-71
2021/01/09 08:25:11;;;;;;;38.23;17.57;;;0.90;99.70;;;;;;5033154;28;20495;-68
2021/01/09 08:27:47;;;;;;;45.30;18.23;;;1.00;99.70;;;;;;5032976;28;20735;-68
2021/01/09 08:30:15;;;;;;;39.87;17.47;;;1.00;99.70;;;;;;5033278;28;20507;-69
2021/01/09 08:32:42;;;;;;;40.30;17.33;;;1.00;99.70;;;;;;5033224;28;20463;-68
2021/01/09 08:35:09;;;;;;;43.37;16.00;;;0.90;99.70;;;;;;5033106;28;20990;-68
2021/01/09 08:37:36;;;;;;;37.37;16.90;;;0.90;99.70;;;;;;5032886;28;20440;-68
2021/01/09 08:40:20;;;;;;;39.90;16.53;;;1.00;99.70;;;;;;5033374;28;20448;-70
2021/01/09 08:43:02;;;;;;;32.30;15.23;;;1.00;99.70;;;;;;5033431;28;20440;-68
2021/01/09 08:45:36;;;;;;;33.70;15.70;;;1.00;99.70;;;;;;5033146;28;20854;-68
2021/01/09 08:48:03;;;;;;;44.10;16.90;;;1.20;99.70;;;;;;5032513;28;20440;-70
2021/01/09 08:50:31;;;;;;;34.63;16.07;;;1.20;99.70;;;;;;5033105;28;20440;-67
2021/01/09 08:53:00;;;;;;;35.37;16.50;;;1.30;99.70;;;;;;5032917;28;20452;-69
2021/01/09 08:55:27;;;;;;;36.53;16.03;;;1.30;99.70;;;;;;5032439;28;20835;-68
2021/01/09 08:57:55;;;;;;;36.67;18.13;;;1.20;99.70;;;;;;5032665;28;20447;-68
2021/01/09 09:00:22;;;;;;;43.33;17.73;;;1.10;99.70;;;;;;5032282;28;20452;-72
2021/01/09 09:02:49;;;;;;;40.93;17.70;;;1.10;99.70;;;;;;5032820;28;20502;-68
2021/01/09 09:05:16;;;;;;;42.83;20.00;;;1.10;99.70;;;;;;5032477;28;20480;-68
2021/01/09 09:07:46;;;;;;;40.07;18.30;;;1.10;99.70;;;;;;5032392;28;20448;-67
2021/01/09 09:10:14;;;;;;;38.77;17.77;;;1.20;99.70;;;;;;5032648;28;20953;-68
2021/01/09 09:12:40;;;;;;;40.50;18.23;;;1.20;99.70;;;;;;5032413;28;20995;-68
2021/01/09 09:15:10;;;;;;;43.00;18.30;;;1.20;99.70;;;;;;5032359;28;20969;-68
2021/01/09 09:17:37;;;;;;;45.00;19.17;;;1.50;99.70;;;;;;5031991;28;20448;-68
2021/01/09 09:20:04;;;;;;;41.20;18.17;;;1.50;99.70;;;;;;5032403;28;20455;-68
2021/01/09 09:22:31;;;;;;;44.60;18.83;;;1.60;99.70;;;;;;5032596;28;20440;-70
2021/01/09 09:24:58;;;;;;;42.37;18.20;;;1.50;99.70;;;;;;5032269;28;20713;-68
2021/01/09 09:27:25;;;;;;;41.17;16.83;;;1.40;99.70;;;;;;5031876;28;20444;-68
2021/01/09 09:30:10;;;;;;;39.00;17.37;;;1.40;99.70;;;;;;5032191;28;20507;-70
2021/01/09 09:32:37;;;;;;;43.23;17.43;;;1.50;99.70;;;;;;5032228;28;20445;-68
2021/01/09 09:35:20;;;;;;;40.80;16.93;;;1.60;99.70;;;;;;5031877;28;20464;-69
2021/01/09 09:37:46;;;;;;;39.60;16.13;;;1.60;99.70;;;;;;5031772;28;20965;-70
2021/01/09 09:40:28;;;;;;;43.60;18.57;;;1.60;99.70;;;;;;5032035;28;20810;-68
2021/01/09 09:43:10;;;;;;;39.87;17.43;;;1.70;99.70;;;;;;5022217;28;20460;-68
2021/01/09 09:45:37;;;;;;;38.83;16.30;;;1.60;99.70;;;;;;5031819;28;20484;-70
2021/01/09 09:48:04;;;;;;;36.50;15.60;;;1.70;99.70;;;;;;5031272;28;20502;-68
2021/01/09 09:50:34;;;;;;;33.70;14.23;;;1.70;99.70;;;;;;5031753;28;20449;-67
2021/01/09 09:53:01;;;;;;;37.80;15.37;;;1.70;99.70;;;;;;5031577;28;20451;-70
2021/01/09 09:55:27;;;;;;;38.97;15.70;;;1.70;99.70;;;;;;5031450;28;20468;-68
2021/01/09 09:58:07;;;;;;;37.20;15.90;;;1.70;99.70;;;;;;5031447;28;20449;-68
2021/01/09 10:00:41;;;;;;;36.30;15.23;;;1.70;99.70;;;;;;5030234;28;20445;-68
2021/01/09 10:03:08;;;;;;;32.53;14.23;;;1.70;99.70;;;;;;5016011;28;20452;-68
2021/01/09 10:05:34;;;;;;;32.43;14.67;;;1.70;99.70;;;;;;5011038;28;20485;-68
2021/01/09 10:08:14;;;;;;;34.77;14.73;;;1.70;99.70;;;;;;5009564;28;20442;-67
2021/01/09 10:10:42;;;;;;;33.80;14.10;;;1.90;99.70;;;;;;5012714;28;20457;-67
2021/01/09 10:13:08;;;;;;;34.63;14.33;;;2.10;99.70;;;;;;5014492;28;20437;-66
2021/01/09 10:15:35;;;;;;;33.00;14.00;;;2.10;99.70;;;;;;5016829;28;20460;-67
2021/01/09 10:18:02;;;;;;;33.50;14.10;;;2.30;99.70;;;;;;5030159;28;20440;-69
2021/01/09 10:20:29;;;;;;;30.20;12.47;;;2.40;99.70;;;;;;5022306;28;20442;-67
2021/01/09 10:22:56;;;;;;;32.70;13.27;;;2.20;99.70;;;;;;5011112;28;20450;-68
2021/01/09 10:25:22;;;;;;;35.40;14.43;;;2.20;99.70;;;;;;5017193;28;20476;-67
2021/01/09 10:27:51;;;;;;;30.53;13.70;;;2.10;99.70;;;;;;5027679;28;20962;-68
2021/01/09 10:30:18;;;;;;;33.87;15.23;;;2.20;99.70;;;;;;5009978;28;20889;-69
2021/01/09 10:32:44;;;;;;;32.07;14.27;;;2.20;99.70;;;;;;5009440;28;20532;-67
2021/01/09 10:35:12;;;;;;;33.10;14.10;;;2.00;99.70;;;;;;5013807;28;20533;-64
2021/01/09 10:37:39;;;;;;;34.27;14.70;;;2.00;99.70;;;;;;5028876;28;20459;-65
2021/01/09 10:40:06;;;;;;;37.60;16.37;;;2.00;99.70;;;;;;5028031;28;20539;-69
2021/01/09 10:42:32;;;;;;;35.50;15.30;;;1.90;99.70;;;;;;5017264;28;20504;-67
2021/01/09 10:44:58;;;;;;;38.23;14.37;;;1.90;99.70;;;;;;5017792;28;20488;-68
2021/01/09 10:47:25;;;;;;;38.20;14.53;;;1.80;99.70;;;;;;5018381;28;20888;-68
2021/01/09 10:49:51;;;;;;;39.17;16.00;;;1.80;99.70;;;;;;5013929;28;20954;-68
2021/01/09 10:52:19;;;;;;;33.53;14.30;;;1.70;99.70;;;;;;5017469;28;20499;-67
2021/01/09 10:54:45;;;;;;;36.20;15.70;;;1.80;99.70;;;;;;5018403;28;20546;-68
2021/01/09 10:57:13;;;;;;;32.10;13.70;;;1.90;99.70;;;;;;5018939;28;20451;-67
2021/01/09 10:59:40;;;;;;;33.20;12.77;;;1.90;99.70;;;;;;5018403;28;20827;-68
2021/01/09 11:02:06;;;;;;;33.97;14.30;;;2.20;99.70;;;;;;5017711;28;20530;-69
2021/01/09 11:04:32;;;;;;;38.00;14.90;;;2.40;99.70;;;;;;5019272;28;20489;-69
2021/01/09 11:06:59;;;;;;;36.83;14.60;;;2.50;99.70;;;;;;5016322;28;20454;-70
2021/01/09 11:09:26;;;;;;;36.60;14.97;;;2.60;99.70;;;;;;5019715;28;20444;-67
2021/01/09 11:11:53;;;;;;;37.40;14.70;;;2.50;99.70;;;;;;5018370;28;20456;-71
2021/01/09 11:14:20;;;;;;;34.23;14.90;;;2.60;99.70;;;;;;5017066;28;20472;-68
2021/01/09 11:16:46;;;;;;;34.33;14.00;;;2.60;99.70;;;;;;5019160;28;20481;-69
2021/01/09 11:19:12;;;;;;;27.87;12.47;;;2.60;99.70;;;;;;5022305;28;20453;-68
2021/01/09 11:21:39;;;;;;;28.30;12.43;;;2.60;99.70;;;;;;5017246;28;20560;-69
2021/01/09 11:24:06;;;;;;;29.43;13.17;;;2.70;99.70;;;;;;5018740;28;20472;-69
2021/01/09 11:26:33;;;;;;;28.13;11.87;;;2.40;99.70;;;;;;5019047;28;21004;-68
2021/01/09 11:29:00;;;;;;;30.07;13.87;;;2.60;99.70;;;;;;5013391;28;20943;-68
2021/01/09 11:31:27;;;;;;;32.97;15.60;;;2.60;99.70;;;;;;5011143;28;20802;-67
2021/01/09 11:33:53;;;;;;;34.60;14.03;;;2.40;99.70;;;;;;5005408;28;20445;-70
2021/01/09 11:36:20;;;;;;;30.97;13.53;;;2.40;99.70;;;;;;5014755;28;20449;-70
2021/01/09 11:38:47;;;;;;;30.23;13.20;;;2.30;99.70;;;;;;5014073;28;20848;-67
2021/01/09 11:41:14;;;;;;;33.03;13.13;;;2.30;99.70;;;;;;5014981;28;20438;-70
2021/01/09 11:43:42;;;;;;;35.57;14.50;;;2.40;99.70;;;;;;5012211;28;20458;-67
2021/01/09 11:46:09;;;;;;;29.50;12.60;;;2.40;99.70;;;;;;5012360;28;20465;-68
2021/01/09 11:48:35;;;;;;;30.50;12.17;;;2.50;99.70;;;;;;5012747;28;20449;-67
2021/01/09 11:51:01;;;;;;;25.20;11.20;;;2.40;99.70;;;;;;5016453;28;20489;-68
2021/01/09 11:53:28;;;;;;;30.87;13.00;;;2.30;99.70;;;;;;5018833;28;20974;-69
2021/01/09 11:55:54;;;;;;;27.37;12.03;;;2.10;99.70;;;;;;5017818;28;20477;-68
2021/01/09 11:58:21;;;;;;;26.03;11.33;;;2.30;99.70;;;;;;5017015;28;20507;-68
2021/01/09 12:00:48;;;;;;;28.50;11.37;;;2.30;99.70;;;;;;5012737;28;20453;-68
2021/01/09 12:03:15;;;;;;;26.40;11.77;;;2.20;99.70;;;;;;5009900;28;20437;-68
2021/01/09 12:05:41;;;;;;;22.23;11.00;;;2.00;99.70;;;;;;5027293;28;20515;-68
2021/01/09 12:08:08;;;;;;;23.83;10.50;;;2.10;99.70;;;;;;5029011;28;20459;-70
2021/01/09 12:10:34;;;;;;;20.90;10.10;;;2.10;99.70;;;;;;5029664;28;20448;-68
2021/01/09 12:13:02;;;;;;;22.93;9.90;;;2.10;99.70;;;;;;5020211;28;20454;-67
2021/01/09 12:15:29;;;;;;;23.80;10.30;;;2.10;99.70;;;;;;5016918;28;20719;-66
2021/01/09 12:17:56;;;;;;;25.20;12.03;;;2.20;99.70;;;;;;5016947;28;20521;-67
2021/01/09 12:20:22;;;;;;;24.73;11.13;;;2.10;99.70;;;;;;5018607;28;20444;-68
2021/01/09 12:22:49;;;;;;;22.87;10.83;;;2.10;99.70;;;;;;5018380;28;20449;-67
2021/01/09 12:25:15;;;;;;;23.47;10.40;;;2.00;99.70;;;;;;5015826;28;20842;-68
2021/01/09 12:27:41;;;;;;;23.83;10.43;;;2.10;99.70;;;;;;5021791;28;20448;-69
2021/01/09 12:30:08;;;;;;;28.17;11.90;;;2.20;99.70;;;;;;5029765;28;20440;-67
2021/01/09 12:32:34;;;;;;;24.67;10.80;;;2.10;99.70;;;;;;5032682;28;20459;-70
2021/01/09 12:35:03;;;;;;;25.37;10.67;;;2.10;99.70;;;;;;5032024;28;20453;-69
2021/01/09 12:37:29;;;;;;;23.10;10.50;;;2.00;99.70;;;;;;5032601;28;20452;-67
2021/01/09 12:39:56;;;;;;;19.87;9.73;;;2.20;99.70;;;;;;5032968;28;20888;-67
2021/01/09 12:42:24;;;;;;;22.77;10.00;;;2.20;99.70;;;;;;5029035;28;20480;-68